createdAt,value
2023-10-06T00:00:31.924Z,19.20
2023-10-06T00:03:09.080Z,19.16
2023-10-06T00:05:42.183Z,19.12
2023-10-06T00:08:14.740Z,19.12
2023-10-06T00:10:41.848Z,18.95
2023-10-06T00:13:09.644Z,19.01
2023-10-06T00:15:36.761Z,19.02
2023-10-06T00:18:04.045Z,19.01
2023-10-06T00:20:31.158Z,18.99
2023-10-06T00:23:00.953Z,18.97
2023-10-06T00:25:28.300Z,18.96
2023-10-06T00:27:55.350Z,18.92
2023-10-06T00:30:22.288Z,18.90
2023-10-06T00:32:49.336Z,18.87
2023-10-06T00:35:16.380Z,18.86
2023-10-06T00:37:51.316Z,18.82
2023-10-06T00:40:18.786Z,18.84
2023-10-06T00:42:51.542Z,18.78
2023-10-06T00:45:18.644Z,18.81
2023-10-06T00:47:45.915Z,18.81
2023-10-06T00:50:14.733Z,18.78
2023-10-06T00:52:42.739Z,18.73
2023-10-06T00:55:10.163Z,18.74
2023-10-06T00:57:37.205Z,18.74
2023-10-06T01:00:05.831Z,18.65
2023-10-06T01:02:32.720Z,18.72
2023-10-06T01:04:59.727Z,18.76
2023-10-06T01:07:26.844Z,18.76
2023-10-06T01:09:57.540Z,18.75
2023-10-06T01:12:25.289Z,18.78
2023-10-06T01:14:52.604Z,18.79
2023-10-06T01:17:19.854Z,18.86
2023-10-06T01:19:47.531Z,18.91
2023-10-06T01:22:22.290Z,18.95
2023-10-06T01:24:54.476Z,18.99
2023-10-06T01:27:28.122Z,18.92
2023-10-06T01:29:59.220Z,18.89
2023-10-06T01:32:26.163Z,19.04
2023-10-06T01:34:53.872Z,19.07
2023-10-06T01:37:27.383Z,19.12
2023-10-06T01:39:55.012Z,19.16
2023-10-06T01:42:22.016Z,19.17
2023-10-06T01:44:59.368Z,19.17
2023-10-06T01:47:37.021Z,19.23
2023-10-06T01:50:05.608Z,19.28
2023-10-06T01:52:32.615Z,19.24
2023-10-06T01:54:59.717Z,19.36
2023-10-06T01:57:26.489Z,19.27
2023-10-06T01:59:53.351Z,19.36
2023-10-06T02:02:20.351Z,19.28
2023-10-06T02:04:52.034Z,19.22
2023-10-06T02:07:19.034Z,19.17
2023-10-06T02:09:45.881Z,19.04
2023-10-06T02:12:12.766Z,18.86
2023-10-06T02:14:45.606Z,18.63
2023-10-06T02:17:13.610Z,18.46
2023-10-06T02:19:42.982Z,18.25
2023-10-06T02:22:09.857Z,18.03
2023-10-06T02:24:39.422Z,17.93
2023-10-06T02:27:09.147Z,17.83
2023-10-06T02:29:38.784Z,17.72
2023-10-06T02:32:05.730Z,17.67
2023-10-06T02:34:32.664Z,17.63
2023-10-06T02:37:00.384Z,17.58
2023-10-06T02:39:29.408Z,17.58
2023-10-06T02:41:56.689Z,17.57
2023-10-06T02:44:25.795Z,17.51
2023-10-06T02:46:57.689Z,17.48
2023-10-06T02:49:24.745Z,17.45
2023-10-06T02:51:51.979Z,17.42
2023-10-06T02:54:18.850Z,17.38
2023-10-06T02:56:45.732Z,17.34
2023-10-06T02:59:12.618Z,17.33
2023-10-06T03:01:39.627Z,17.31
2023-10-06T03:04:06.694Z,17.30
2023-10-06T03:06:33.515Z,17.31
2023-10-06T03:09:00.314Z,17.31
2023-10-06T03:11:32.431Z,17.19
2023-10-06T03:13:59.317Z,17.30
2023-10-06T03:16:26.282Z,17.30
2023-10-06T03:19:02.333Z,17.26
2023-10-06T03:21:34.649Z,17.25
2023-10-06T03:24:10.664Z,17.25
2023-10-06T03:26:45.319Z,17.14
2023-10-06T03:29:12.385Z,17.26
2023-10-06T03:31:39.512Z,17.13
2023-10-06T03:34:06.402Z,17.25
2023-10-06T03:36:43.029Z,17.25
2023-10-06T03:39:17.079Z,17.25
2023-10-06T03:41:45.547Z,17.28
2023-10-06T03:44:12.508Z,17.29
2023-10-06T03:46:39.962Z,17.27
2023-10-06T03:49:11.398Z,17.23
2023-10-06T03:51:38.454Z,17.25
2023-10-06T03:54:06.200Z,17.24
2023-10-06T03:56:36.671Z,17.20
2023-10-06T03:59:04.600Z,17.21
2023-10-06T04:01:31.613Z,17.20
2023-10-06T04:04:03.329Z,17.16
2023-10-06T04:06:30.182Z,17.13
2023-10-06T04:08:57.228Z,17.14
2023-10-06T04:11:24.381Z,17.14
2023-10-06T04:13:55.063Z,17.13
2023-10-06T04:16:23.436Z,17.09
2023-10-06T04:18:50.879Z,17.05
2023-10-06T04:21:21.836Z,17.00
2023-10-06T04:23:53.518Z,17.10
2023-10-06T04:26:20.491Z,16.99
2023-10-06T04:28:47.372Z,17.14
2023-10-06T04:31:14.332Z,17.13
2023-10-06T04:33:41.289Z,17.20
2023-10-06T04:36:08.199Z,17.20
2023-10-06T04:38:41.866Z,17.33
2023-10-06T04:41:11.692Z,17.49
2023-10-06T04:43:40.113Z,17.64
2023-10-06T04:46:06.999Z,17.75
2023-10-06T04:48:41.420Z,17.88
2023-10-06T04:51:10.089Z,17.88
2023-10-06T04:53:36.945Z,18.04
2023-10-06T04:56:08.321Z,18.03
2023-10-06T04:58:36.525Z,18.08
2023-10-06T05:01:03.833Z,18.15
2023-10-06T05:03:37.435Z,18.13
2023-10-06T05:06:19.995Z,18.11
2023-10-06T05:08:47.526Z,18.05
2023-10-06T05:11:17.864Z,17.94
2023-10-06T05:13:46.961Z,17.83
2023-10-06T05:16:14.882Z,17.78
2023-10-06T05:18:41.937Z,17.62
2023-10-06T05:21:08.783Z,17.68
2023-10-06T05:23:38.703Z,17.61
2023-10-06T05:26:05.681Z,17.60
2023-10-06T05:28:35.378Z,17.50
2023-10-06T05:31:03.108Z,17.57
2023-10-06T05:33:29.986Z,17.59
2023-10-06T05:35:57.433Z,17.54
2023-10-06T05:38:24.299Z,17.62
2023-10-06T05:40:58.668Z,17.57
2023-10-06T05:43:35.551Z,17.51
2023-10-06T05:46:06.147Z,17.50
2023-10-06T05:48:35.840Z,17.43
2023-10-06T05:51:05.157Z,17.41
2023-10-06T05:53:34.007Z,17.40
2023-10-06T05:56:04.821Z,17.27
2023-10-06T05:58:31.602Z,17.37
2023-10-06T06:00:58.480Z,17.40
2023-10-06T06:03:25.583Z,17.48
2023-10-06T06:05:53.554Z,17.59
2023-10-06T06:08:28.796Z,17.73
2023-10-06T06:10:55.649Z,17.84
2023-10-06T06:13:23.392Z,17.91
2023-10-06T06:15:51.966Z,18.02
2023-10-06T06:18:18.990Z,18.15
2023-10-06T06:20:45.991Z,18.30
2023-10-06T06:23:13.715Z,18.42
2023-10-06T06:25:41.758Z,18.49
2023-10-06T06:28:11.227Z,18.54
2023-10-06T06:30:38.228Z,18.65
2023-10-06T06:33:08.724Z,18.76
2023-10-06T06:35:36.626Z,18.92
2023-10-06T06:38:13.926Z,18.97
2023-10-06T06:40:41.591Z,19.23
2023-10-06T06:43:24.193Z,19.35
2023-10-06T06:45:51.805Z,19.79
2023-10-06T06:48:18.804Z,19.99
2023-10-06T06:50:51.705Z,20.08
2023-10-06T06:53:23.435Z,20.07
2023-10-06T06:55:53.355Z,20.09
2023-10-06T06:58:22.745Z,20.02
2023-10-06T07:00:51.908Z,20.04
2023-10-06T07:03:18.761Z,20.05
2023-10-06T07:05:49.168Z,20.16
2023-10-06T07:08:23.833Z,20.22
2023-10-06T07:10:51.076Z,20.28
2023-10-06T07:13:17.889Z,20.20
2023-10-06T07:15:54.816Z,20.38
2023-10-06T07:18:39.255Z,20.50
2023-10-06T07:21:11.702Z,20.74
2023-10-06T07:23:38.627Z,20.90
2023-10-06T07:26:12.893Z,21.05
2023-10-06T07:28:40.298Z,21.29
2023-10-06T07:31:14.609Z,21.45
2023-10-06T07:33:58.088Z,21.61
2023-10-06T07:36:36.634Z,21.92
2023-10-06T07:39:06.186Z,22.06
2023-10-06T07:41:33.594Z,22.11
2023-10-06T07:44:03.345Z,22.05
2023-10-06T07:46:35.992Z,22.01
2023-10-06T07:49:02.854Z,22.04
2023-10-06T07:51:29.691Z,21.99
2023-10-06T07:54:00.172Z,22.04
2023-10-06T07:56:32.477Z,22.17
2023-10-06T07:59:01.258Z,22.34
2023-10-06T08:01:37.882Z,22.56
2023-10-06T08:04:05.898Z,23.00
2023-10-06T08:06:34.671Z,23.57
2023-10-06T08:09:03.555Z,24.32
2023-10-06T08:11:34.012Z,25.03
2023-10-06T08:14:01.258Z,25.77
2023-10-06T08:16:28.180Z,26.22
2023-10-06T08:18:55.071Z,26.31
2023-10-06T08:21:23.811Z,26.00
2023-10-06T08:23:54.342Z,25.89
2023-10-06T08:26:23.891Z,25.70
2023-10-06T08:28:50.764Z,25.58
2023-10-06T08:31:18.242Z,25.42
2023-10-06T08:33:47.076Z,25.47
2023-10-06T08:36:14.046Z,25.88
2023-10-06T08:38:40.928Z,26.34
2023-10-06T08:41:15.186Z,26.84
2023-10-06T08:43:54.738Z,27.14
2023-10-06T08:46:26.513Z,27.49
2023-10-06T08:48:55.020Z,27.85
2023-10-06T08:51:23.787Z,28.14
2023-10-06T08:53:59.887Z,28.16
2023-10-06T08:56:26.890Z,28.29
2023-10-06T08:58:54.656Z,28.32
2023-10-06T09:01:30.636Z,28.18
2023-10-06T09:04:11.196Z,27.96
2023-10-06T09:06:58.379Z,27.93
2023-10-06T09:09:28.216Z,28.11
2023-10-06T09:11:59.749Z,28.19
2023-10-06T09:14:28.632Z,28.08
2023-10-06T09:16:55.611Z,28.00
2023-10-06T09:19:22.498Z,27.87
2023-10-06T09:22:07.131Z,27.68
2023-10-06T09:24:40.857Z,27.82
2023-10-06T09:27:27.230Z,28.03
2023-10-06T09:30:04.284Z,28.49
2023-10-06T09:32:31.694Z,28.59
2023-10-06T09:34:58.675Z,28.49
2023-10-06T09:37:28.131Z,28.28
2023-10-06T09:40:02.668Z,28.10
2023-10-06T09:42:30.539Z,27.98
2023-10-06T09:45:13.082Z,27.98
2023-10-06T09:47:49.930Z,28.06
2023-10-06T09:50:19.496Z,27.97
2023-10-06T09:52:50.852Z,27.97
2023-10-06T09:55:26.234Z,28.04
2023-10-06T09:57:55.266Z,28.25
2023-10-06T10:00:22.114Z,28.57
2023-10-06T10:02:50.739Z,28.85
2023-10-06T10:05:22.638Z,28.85
2023-10-06T10:07:50.211Z,28.82
2023-10-06T10:10:20.786Z,28.79
2023-10-06T10:13:05.822Z,28.64
2023-10-06T10:16:13.729Z,28.78
2023-10-06T10:18:46.440Z,28.98
2023-10-06T10:21:15.618Z,28.98
2023-10-06T10:23:44.702Z,29.04
2023-10-06T10:26:39.464Z,29.15
2023-10-06T10:29:15.420Z,29.34
2023-10-06T10:32:00.757Z,29.48
2023-10-06T10:34:37.146Z,29.64
2023-10-06T10:37:03.871Z,29.81
2023-10-06T10:39:42.162Z,29.97
2023-10-06T10:42:14.319Z,29.96
2023-10-06T10:44:44.755Z,29.67
2023-10-06T10:47:21.019Z,29.57
2023-10-06T10:49:50.531Z,29.67
2023-10-06T10:52:17.630Z,30.06
2023-10-06T10:54:44.558Z,30.27
2023-10-06T10:57:21.542Z,30.49
2023-10-06T11:00:06.156Z,30.51
2023-10-06T11:02:36.852Z,30.37
2023-10-06T11:05:05.642Z,30.25
2023-10-06T11:07:34.164Z,30.20
2023-10-06T11:10:02.507Z,30.40
2023-10-06T11:12:35.116Z,30.66
2023-10-06T11:15:04.526Z,30.80
2023-10-06T11:17:35.454Z,30.61
2023-10-06T11:20:09.374Z,30.49
2023-10-06T11:22:36.251Z,30.32
2023-10-06T11:25:12.314Z,30.06
2023-10-06T11:27:51.647Z,29.99
2023-10-06T11:30:22.983Z,30.08
2023-10-06T11:32:49.928Z,30.10
2023-10-06T11:35:18.197Z,30.27
2023-10-06T11:37:47.606Z,30.46
2023-10-06T11:40:19.445Z,30.40
2023-10-06T11:42:46.228Z,30.45
2023-10-06T11:45:29.075Z,30.37
2023-10-06T11:47:56.296Z,30.25
2023-10-06T11:50:28.505Z,30.05
2023-10-06T11:52:55.481Z,30.18
2023-10-06T11:55:33.160Z,30.49
2023-10-06T11:58:04.344Z,30.76
2023-10-06T12:00:39.867Z,30.78
2023-10-06T12:03:21.352Z,30.89
2023-10-06T12:05:57.194Z,30.92
2023-10-06T12:08:27.984Z,30.94
2023-10-06T12:10:55.556Z,30.99
2023-10-06T12:13:22.857Z,31.16
2023-10-06T12:15:59.719Z,31.16
2023-10-06T12:18:42.856Z,30.97
2023-10-06T12:21:12.363Z,30.77
2023-10-06T12:23:39.156Z,30.53
2023-10-06T12:26:06.020Z,30.32
2023-10-06T12:28:33.524Z,30.20
2023-10-06T12:31:04.981Z,29.95
2023-10-06T12:33:37.453Z,29.62
2023-10-06T12:36:14.143Z,29.22
2023-10-06T12:38:50.716Z,29.35
2023-10-06T12:41:18.787Z,29.58
2023-10-06T12:43:47.945Z,29.68
2023-10-06T12:46:20.862Z,29.79
2023-10-06T12:48:49.297Z,29.87
2023-10-06T12:51:16.515Z,29.66
2023-10-06T12:53:43.433Z,29.41
2023-10-06T12:56:10.565Z,29.32
2023-10-06T12:58:37.853Z,29.31
2023-10-06T13:01:04.709Z,29.34
2023-10-06T13:03:31.639Z,29.47
2023-10-06T13:06:04.285Z,29.66
2023-10-06T13:08:32.828Z,29.86
2023-10-06T13:10:59.708Z,30.01
2023-10-06T13:13:41.273Z,30.13
2023-10-06T13:16:14.485Z,30.35
2023-10-06T13:18:47.379Z,30.54
2023-10-06T13:21:15.161Z,30.75
2023-10-06T13:23:42.002Z,30.70
2023-10-06T13:26:27.126Z,30.60
2023-10-06T13:29:01.239Z,30.70
2023-10-06T13:31:30.139Z,30.82
2023-10-06T13:33:57.574Z,30.85
2023-10-06T13:36:24.519Z,30.82
2023-10-06T13:38:56.504Z,30.65
2023-10-06T13:41:23.671Z,30.59
2023-10-06T13:43:50.524Z,30.57
2023-10-06T13:46:23.309Z,30.56
2023-10-06T13:48:50.945Z,30.38
2023-10-06T13:51:25.676Z,30.35
2023-10-06T13:53:52.632Z,30.29
2023-10-06T13:56:22.475Z,30.30
2023-10-06T13:58:54.325Z,30.39
2023-10-06T14:01:21.217Z,30.60
2023-10-06T14:03:48.151Z,30.94
2023-10-06T14:06:15.103Z,31.01
2023-10-06T14:08:41.874Z,30.80
2023-10-06T14:11:08.788Z,30.61
2023-10-06T14:13:35.662Z,30.41
2023-10-06T14:16:02.966Z,30.17
2023-10-06T14:18:29.822Z,30.03
2023-10-06T14:20:57.285Z,29.98
2023-10-06T14:23:25.701Z,30.02
2023-10-06T14:25:53.522Z,29.96
2023-10-06T14:28:25.077Z,29.97
2023-10-06T14:30:53.135Z,30.05
2023-10-06T14:33:23.254Z,30.07
2023-10-06T14:35:59.475Z,29.96
2023-10-06T14:38:29.392Z,29.81
2023-10-06T14:41:01.112Z,29.70
2023-10-06T14:43:29.900Z,29.76
2023-10-06T14:45:56.943Z,29.72
2023-10-06T14:48:23.955Z,29.74
2023-10-06T14:51:03.638Z,29.78
2023-10-06T14:53:31.624Z,29.75
2023-10-06T14:55:58.585Z,29.70
2023-10-06T14:58:37.064Z,29.75
2023-10-06T15:01:09.760Z,29.65
2023-10-06T15:03:47.442Z,29.50
2023-10-06T15:06:25.716Z,29.32
2023-10-06T15:08:59.199Z,29.23
2023-10-06T15:11:27.105Z,29.16
2023-10-06T15:13:59.377Z,29.11
2023-10-06T15:16:26.593Z,29.03
2023-10-06T15:18:53.522Z,28.93
2023-10-06T15:21:22.062Z,28.91
2023-10-06T15:23:51.349Z,28.89
2023-10-06T15:26:20.854Z,28.80
2023-10-06T15:28:57.133Z,28.65
2023-10-06T15:31:34.035Z,28.51
2023-10-06T15:34:12.631Z,28.36
2023-10-06T15:36:50.178Z,28.15
2023-10-06T15:39:18.031Z,28.06
2023-10-06T15:41:49.342Z,27.83
2023-10-06T15:44:19.898Z,27.58
2023-10-06T15:46:53.721Z,27.45
2023-10-06T15:49:21.630Z,27.34
2023-10-06T15:51:48.969Z,27.18
2023-10-06T15:54:16.043Z,26.97
2023-10-06T15:56:54.211Z,26.76
2023-10-06T15:59:21.942Z,26.70
2023-10-06T16:01:55.192Z,26.51
2023-10-06T16:04:22.072Z,26.35
2023-10-06T16:06:48.932Z,26.20
2023-10-06T16:09:15.714Z,26.06
2023-10-06T16:11:42.733Z,25.87
2023-10-06T16:14:09.665Z,25.65
2023-10-06T16:16:43.058Z,25.42
2023-10-06T16:19:10.670Z,25.21
2023-10-06T16:21:47.777Z,24.97
2023-10-06T16:24:15.978Z,24.78
2023-10-06T16:26:43.161Z,24.60
2023-10-06T16:29:13.935Z,24.44
2023-10-06T16:31:41.297Z,24.27
2023-10-06T16:34:15.025Z,24.12
2023-10-06T16:36:48.883Z,23.97
2023-10-06T16:39:16.085Z,23.90
2023-10-06T16:41:43.281Z,23.76
2023-10-06T16:44:10.141Z,23.62
2023-10-06T16:46:36.991Z,23.51
2023-10-06T16:49:07.864Z,23.39
2023-10-06T16:51:34.817Z,23.30
2023-10-06T16:54:01.610Z,23.23
2023-10-06T16:56:29.625Z,23.14
2023-10-06T16:58:56.572Z,23.05
2023-10-06T17:01:23.447Z,22.97
2023-10-06T17:03:52.539Z,22.87
2023-10-06T17:06:32.154Z,22.74
2023-10-06T17:09:01.096Z,22.71
2023-10-06T17:11:28.208Z,22.63
2023-10-06T17:14:02.340Z,22.54
2023-10-06T17:16:29.228Z,22.50
2023-10-06T17:18:56.110Z,22.41
2023-10-06T17:21:22.978Z,22.34
2023-10-06T17:23:53.449Z,22.26
2023-10-06T17:26:20.419Z,22.21
2023-10-06T17:28:54.556Z,22.15
2023-10-06T17:31:21.686Z,22.10
2023-10-06T17:33:49.042Z,22.03
2023-10-06T17:36:25.278Z,21.96
2023-10-06T17:38:52.314Z,21.92
2023-10-06T17:41:22.217Z,21.83
2023-10-06T17:43:49.180Z,21.80
2023-10-06T17:46:17.136Z,21.77
2023-10-06T17:48:50.320Z,21.64
2023-10-06T17:51:23.973Z,21.72
2023-10-06T17:53:51.353Z,21.71
2023-10-06T17:56:18.391Z,21.65
2023-10-06T17:58:52.940Z,21.57
2023-10-06T18:01:20.869Z,21.51
2023-10-06T18:03:53.936Z,21.40
2023-10-06T18:06:28.857Z,21.39
2023-10-06T18:08:56.493Z,21.33
2023-10-06T18:11:23.337Z,21.25
2023-10-06T18:13:50.335Z,21.19
2023-10-06T18:16:17.273Z,21.14
2023-10-06T18:18:47.918Z,21.08
2023-10-06T18:21:14.752Z,21.04
2023-10-06T18:23:44.347Z,21.00
2023-10-06T18:26:13.800Z,20.99
2023-10-06T18:28:40.896Z,20.94
2023-10-06T18:31:08.123Z,20.88
2023-10-06T18:33:36.604Z,20.79
2023-10-06T18:36:03.484Z,20.78
2023-10-06T18:38:30.450Z,20.73
2023-10-06T18:41:00.461Z,20.65
2023-10-06T18:43:31.854Z,20.60
2023-10-06T18:46:00.167Z,20.60
2023-10-06T18:48:27.337Z,20.55
2023-10-06T18:50:58.270Z,20.52
2023-10-06T18:53:25.816Z,20.48
2023-10-06T18:55:53.419Z,20.42
2023-10-06T18:58:28.489Z,20.38
2023-10-06T19:00:59.420Z,20.35
2023-10-06T19:03:26.447Z,20.31
2023-10-06T19:06:05.804Z,20.16
2023-10-06T19:08:33.620Z,20.21
2023-10-06T19:11:07.160Z,20.17
2023-10-06T19:13:34.068Z,20.15
2023-10-06T19:16:00.887Z,20.12
2023-10-06T19:18:27.679Z,20.06
2023-10-06T19:21:04.101Z,20.00
2023-10-06T19:23:30.998Z,20.04
2023-10-06T19:26:09.905Z,19.98
2023-10-06T19:28:40.449Z,20.00
2023-10-06T19:31:18.103Z,19.95
2023-10-06T19:33:52.485Z,19.87
2023-10-06T19:36:19.932Z,19.90
2023-10-06T19:38:46.792Z,19.85
2023-10-06T19:41:17.151Z,19.85
2023-10-06T19:43:45.421Z,19.80
2023-10-06T19:46:15.189Z,19.75
2023-10-06T19:48:42.829Z,19.69
2023-10-06T19:51:09.697Z,19.61
2023-10-06T19:53:45.570Z,19.40
2023-10-06T19:56:15.287Z,19.53
2023-10-06T19:58:42.147Z,19.51
2023-10-06T20:01:09.272Z,19.49
2023-10-06T20:03:40.084Z,19.46
2023-10-06T20:06:06.932Z,19.45
2023-10-06T20:08:39.013Z,19.42
2023-10-06T20:11:05.943Z,19.46
2023-10-06T20:13:35.021Z,19.43
2023-10-06T20:16:13.733Z,19.34
2023-10-06T20:18:44.184Z,19.36
2023-10-06T20:21:11.419Z,19.36
2023-10-06T20:23:38.460Z,19.32
2023-10-06T20:26:05.457Z,19.31
2023-10-06T20:28:32.251Z,19.19
2023-10-06T20:30:59.118Z,19.30
2023-10-06T20:33:31.882Z,19.29
2023-10-06T20:35:58.672Z,19.28
2023-10-06T20:38:25.823Z,19.27
2023-10-06T20:40:53.416Z,19.25
2023-10-06T20:43:20.359Z,19.23
2023-10-06T20:45:47.286Z,19.19
2023-10-06T20:48:14.184Z,19.13
2023-10-06T20:50:45.500Z,19.15
2023-10-06T20:53:12.315Z,19.16
2023-10-06T20:55:39.150Z,19.14
2023-10-06T20:58:05.965Z,19.11
2023-10-06T21:00:35.084Z,19.08
2023-10-06T21:03:07.831Z,19.06
2023-10-06T21:05:34.963Z,19.01
2023-10-06T21:08:01.803Z,18.97
2023-10-06T21:10:28.797Z,18.90
2023-10-06T21:12:55.684Z,18.78
2023-10-06T21:15:22.545Z,18.85
2023-10-06T21:17:58.346Z,18.77
2023-10-06T21:20:25.120Z,18.81
2023-10-06T21:22:51.954Z,18.79
2023-10-06T21:25:18.996Z,18.77
2023-10-06T21:27:45.817Z,18.74
2023-10-06T21:30:13.170Z,18.70
2023-10-06T21:32:39.924Z,18.66
2023-10-06T21:35:07.111Z,18.61
2023-10-06T21:37:34.130Z,18.55
2023-10-06T21:40:00.990Z,18.52
2023-10-06T21:42:27.893Z,18.51
2023-10-06T21:44:54.699Z,18.51
2023-10-06T21:47:24.059Z,18.49
2023-10-06T21:49:56.555Z,18.50
2023-10-06T21:52:23.472Z,18.52
2023-10-06T21:54:50.782Z,18.46
2023-10-06T21:57:17.560Z,18.53
2023-10-06T21:59:44.379Z,18.52
2023-10-06T22:02:11.284Z,18.52
2023-10-06T22:04:38.544Z,18.53
2023-10-06T22:07:08.796Z,18.40
2023-10-06T22:09:35.642Z,18.53
2023-10-06T22:12:03.427Z,18.52
2023-10-06T22:14:30.258Z,18.53
2023-10-06T22:16:57.190Z,18.48
2023-10-06T22:19:24.091Z,18.51
2023-10-06T22:21:57.535Z,18.44
2023-10-06T22:24:24.304Z,18.49
2023-10-06T22:26:51.115Z,18.48
2023-10-06T22:29:19.545Z,18.45
2023-10-06T22:31:49.965Z,18.42
2023-10-06T22:34:35.579Z,18.36
2023-10-06T22:37:20.665Z,18.31
2023-10-06T22:39:53.570Z,18.41
2023-10-06T22:42:23.816Z,18.39
2023-10-06T22:44:51.481Z,18.35
2023-10-06T22:47:18.306Z,18.35
2023-10-06T22:49:45.292Z,18.35
2023-10-06T22:52:12.143Z,18.23
2023-10-06T22:54:39.009Z,18.31
2023-10-06T22:57:05.850Z,18.29
2023-10-06T22:59:32.863Z,18.27
2023-10-06T23:01:59.916Z,18.26
2023-10-06T23:04:30.800Z,18.14
2023-10-06T23:07:10.960Z,18.23
2023-10-06T23:09:49.103Z,18.15
2023-10-06T23:12:16.274Z,18.25
2023-10-06T23:14:43.053Z,18.22
2023-10-06T23:17:22.920Z,18.17
2023-10-06T23:20:03.563Z,18.18
2023-10-06T23:22:43.855Z,18.17
2023-10-06T23:25:25.386Z,18.17
2023-10-06T23:28:06.704Z,18.08
2023-10-06T23:30:37.796Z,18.13
2023-10-06T23:33:11.514Z,18.03
2023-10-06T23:35:53.608Z,18.12
2023-10-06T23:38:22.077Z,18.17
2023-10-06T23:40:49.571Z,18.09
2023-10-06T23:43:17.392Z,18.15
2023-10-06T23:45:44.247Z,18.08
2023-10-06T23:48:11.430Z,18.09
2023-10-06T23:50:39.461Z,18.07
2023-10-06T23:53:06.748Z,17.94
2023-10-06T23:55:37.609Z,18.01
2023-10-06T23:58:04.618Z,18.01
